HKNW/WIL METAR and TAF weather

Enter ICAO airport designator
Station Type Date Time Source
HKNW METAR 2020/01/18 04:00 UTC NOAA

HKNW 180400Z 00000KT 9999 FEW019 BKN080 17/16 Q1020


Station Type Date Time Source
HKNW Decoded METAR 2020/01/18 04:00 UTC NOAA

Nairobi / Wilson, Kenya (HKNW) 01-19S 036-49E 1679M
Jan 17, 2020 - 11:00 PM EST / 2020.01.18 0400 UTC
Wind: Calm:0
Visibility: greater than 7 mile(s):0
Sky conditions: mostly cloudy
Temperature: 62 F (17 C)
Dew Point: 60 F (16 C)
Relative Humidity: 93%
Pressure (altimeter): 30.12 in. Hg (1020 hPa)
ob: HKNW 180400Z 00000KT 9999 FEW019 BKN080 17/16 Q1020
cycle: 4

Station Type Date Time Source
HKNW TAF 2020/01/18 06:42 UTC NOAA

TAF TAF HKNW 180500Z 1806/1906 04005KT FEW019 BKN080
BECMG 1808/1811 06010KT BKN024 PROB30
TEMPO 1812/1815 SHRA FEW024CB BKN025
BECMG 1815/1821 04010KT BKN012
BECMG 1903/1906 09010KT ST023

Example: see airport list